Time;durP1;ratioP1;P1;durP2;ratioP2;P2;SDS_P1;SDS_P2;PMS_P1;PMS_P2;Temp;Humidity;BMP_temperature;BMP_pressure;BME280_temperature;BME280_humidity;BME280_pressure;Samples;Min_cycle;Max_cycle;Signal;HPM_P1;HPM_P2
2023/02/03 00:01:56;;;;;;;18.70;11.40;;;;;;;6.47;100.00;101271.07;108094;1253;72692;-78
2023/02/03 00:04:24;;;;;;;20.20;12.80;;;;;;;6.59;100.00;101273.02;108006;1252;61565;-79
2023/02/03 00:06:50;;;;;;;21.00;13.10;;;;;;;6.68;100.00;101273.98;107716;1252;59791;-79
2023/02/03 00:09:18;;;;;;;23.00;14.40;;;;;;;6.75;100.00;101279.30;107872;1254;72648;-79
2023/02/03 00:11:45;;;;;;;22.40;14.30;;;;;;;6.82;100.00;101268.48;107779;1254;71069;-79
2023/02/03 00:14:12;;;;;;;23.50;14.40;;;;;;;6.89;100.00;101259.78;107598;1253;72430;-78
2023/02/03 00:16:39;;;;;;;25.10;15.20;;;;;;;6.93;100.00;101256.42;107755;1256;60582;-77
2023/02/03 00:19:06;;;;;;;22.40;15.50;;;;;;;6.97;100.00;101251.19;107591;1251;60077;-78
2023/02/03 00:21:33;;;;;;;22.80;15.90;;;;;;;6.99;100.00;101260.53;107970;1256;73774;-77
2023/02/03 00:24:00;;;;;;;22.60;15.80;;;;;;;7.02;100.00;101256.37;107886;1254;69713;-76
2023/02/03 00:26:28;;;;;;;25.60;16.30;;;;;;;7.04;100.00;101246.48;107973;1254;70815;-76
2023/02/03 00:28:55;;;;;;;24.00;15.60;;;;;;;7.09;100.00;101234.61;107829;1256;61139;-76
2023/02/03 00:31:23;;;;;;;20.80;13.10;;;;;;;7.11;100.00;101234.61;107839;1256;60738;-76
2023/02/03 00:33:55;;;;;;;22.80;16.00;;;;;;;7.14;100.00;101229.80;108163;1253;73882;-77
2023/02/03 00:36:23;;;;;;;25.60;16.60;;;;;;;7.19;100.00;101223.91;107393;1253;71321;-77
2023/02/03 00:38:50;;;;;;;18.80;13.00;;;;;;;7.23;100.00;101227.20;108147;1252;71552;-76
2023/02/03 00:41:18;;;;;;;19.10;13.00;;;;;;;7.25;100.00;101236.30;107962;1252;62313;-76
2023/02/03 00:43:45;;;;;;;19.80;14.60;;;;;;;7.30;100.00;101236.61;107624;1252;60427;-76
2023/02/03 00:46:12;;;;;;;17.40;12.60;;;;;;;7.33;100.00;101243.15;108040;1253;73551;-77
2023/02/03 00:48:39;;;;;;;21.40;14.60;;;;;;;7.35;100.00;101232.77;107613;1254;69785;-76
2023/02/03 00:51:06;;;;;;;21.10;14.80;;;;;;;7.39;100.00;101234.54;107892;1256;72714;-77
2023/02/03 00:53:33;;;;;;;17.10;12.80;;;;;;;7.39;100.00;101231.90;107643;1254;60243;-76
2023/02/03 00:56:00;;;;;;;19.20;14.60;;;;;;;7.41;100.00;101234.36;107714;1254;60313;-77
2023/02/03 00:58:26;;;;;;;19.60;15.00;;;;;;;7.44;100.00;101225.52;108080;1253;73558;-76
2023/02/03 01:00:55;;;;;;;21.30;15.30;;;;;;;7.43;100.00;101224.36;107877;1256;68877;-77
2023/02/03 01:03:22;;;;;;;17.80;13.00;;;;;;;7.43;100.00;101224.20;107791;1254;72647;-76
2023/02/03 01:05:49;;;;;;;18.40;13.50;;;;;;;7.44;100.00;101233.05;107774;1254;61073;-77
2023/02/03 01:08:16;;;;;;;19.10;13.90;;;;;;;7.45;100.00;101224.85;107839;1253;60428;-77
2023/02/03 01:10:43;;;;;;;18.60;14.10;;;;;;;7.46;100.00;101226.35;107494;1256;72663;-77
2023/02/03 01:13:10;;;;;;;17.20;13.00;;;;;;;7.48;100.00;101213.28;107457;1253;70927;-75
2023/02/03 01:15:37;;;;;;;17.80;11.90;;;;;;;7.46;100.00;101215.46;107992;1253;72748;-76
2023/02/03 01:18:04;;;;;;;20.60;13.70;;;;;;;7.47;100.00;101222.34;107572;1255;60924;-76
2023/02/03 01:20:31;;;;;;;18.70;13.70;;;;;;;7.48;100.00;101222.83;107686;1253;60809;-76
2023/02/03 01:22:58;;;;;;;16.00;11.80;;;;;;;7.48;100.00;101222.27;107540;1254;73579;-77
2023/02/03 01:25:24;;;;;;;16.50;12.70;;;;;;;7.49;100.00;101228.73;108192;1254;71473;-75
2023/02/03 01:27:51;;;;;;;18.60;13.20;;;;;;;7.49;100.00;101233.41;108068;1253;71550;-77
2023/02/03 01:30:18;;;;;;;17.90;13.30;;;;;;;7.51;100.00;101231.88;107621;1252;62026;-78
2023/02/03 01:32:45;;;;;;;17.60;11.80;;;;;;;7.52;100.00;101224.40;108242;1252;60826;-76
2023/02/03 01:35:12;;;;;;;15.50;12.30;;;;;;;7.51;100.00;101235.17;107749;1254;74888;-75
2023/02/03 01:37:39;;;;;;;19.60;13.50;;;;;;;7.56;100.00;101229.31;107948;1254;71308;-75
2023/02/03 01:40:07;;;;;;;15.60;12.20;;;;;;;7.56;100.00;101218.89;107677;1253;71554;-76
2023/02/03 01:42:34;;;;;;;15.80;11.50;;;;;;;7.56;100.00;101234.03;107794;1254;60435;-76
2023/02/03 01:45:01;;;;;;;20.40;12.40;;;;;;;7.56;100.00;101224.72;107461;1252;60592;-75
2023/02/03 01:47:58;;;;;;;17.00;12.40;;;;;;;7.57;100.00;101232.40;108274;1253;73472;-75
2023/02/03 01:50:35;;;;;;;16.30;12.50;;;;;;;7.55;100.00;101232.49;108721;1254;70031;-74
2023/02/03 01:53:05;;;;;;;18.10;12.60;;;;;;;7.52;100.00;101224.15;108329;1255;70151;-76
2023/02/03 01:55:37;;;;;;;15.70;11.80;;;;;;;7.53;100.00;101224.66;108464;1256;60540;-76
2023/02/03 01:58:24;;;;;;;17.40;13.40;;;;;;;7.52;100.00;101202.39;107891;1258;60914;-76
2023/02/03 02:00:51;;;;;;;16.80;11.80;;;;;;;7.48;100.00;101201.11;107956;1254;75042;-76
2023/02/03 02:03:20;;;;;;;17.10;12.50;;;;;;;7.48;100.00;101201.66;108579;1254;72256;-76
2023/02/03 02:05:56;;;;;;;14.00;9.50;;;;;;;7.47;100.00;101192.45;108228;1256;72837;-76
2023/02/03 02:08:24;;;;;;;17.10;11.70;;;;;;;7.48;100.00;101184.81;108650;1253;60895;-75
2023/02/03 02:10:51;;;;;;;14.70;11.50;;;;;;;7.50;100.00;101170.71;108118;1253;59438;-76
2023/02/03 02:13:20;;;;;;;13.60;10.70;;;;;;;7.50;100.00;101173.48;107907;1253;73623;-76
2023/02/03 02:15:55;;;;;;;15.90;11.10;;;;;;;7.51;100.00;101163.88;107840;1258;70358;-76
2023/02/03 02:18:41;;;;;;;14.80;10.50;;;;;;;7.53;100.00;101158.93;108453;1254;74226;-75
2023/02/03 02:21:22;;;;;;;15.30;10.30;;;;;;;7.56;100.00;101149.20;108207;1254;60052;-75
2023/02/03 02:23:51;;;;;;;14.30;10.00;;;;;;;7.61;100.00;101147.50;108533;1252;59250;-76
2023/02/03 02:26:47;;;;;;;13.00;9.40;;;;;;;7.63;100.00;101160.89;108365;1252;75778;-75
2023/02/03 02:29:27;;;;;;;13.50;9.30;;;;;;;7.66;100.00;101144.88;107844;1254;70323;-76
2023/02/03 02:32:14;;;;;;;14.10;9.90;;;;;;;7.69;100.00;101126.98;107754;1253;73133;-75
2023/02/03 02:34:57;;;;;;;13.40;8.90;;;;;;;7.68;100.00;101113.77;107645;1254;61668;-76
2023/02/03 02:37:42;;;;;;;10.40;8.00;;;;;;;7.70;100.00;101114.05;107941;1254;61581;-76
2023/02/03 02:40:22;;;;;;;13.00;8.50;;;;;;;7.72;99.87;101108.54;107663;1254;72362;-77
2023/02/03 02:42:58;;;;;;;13.20;8.40;;;;;;;7.75;99.25;101125.17;108109;1253;71187;-76
2023/02/03 02:45:54;;;;;;;10.10;7.40;;;;;;;7.76;98.31;101121.09;107745;1253;71643;-77
2023/02/03 02:48:23;;;;;;;11.60;7.70;;;;;;;7.81;97.79;101124.13;107970;1253;60641;-76
2023/02/03 02:50:54;;;;;;;10.10;7.50;;;;;;;7.84;97.26;101123.14;107757;1254;60354;-79
2023/02/03 02:53:24;;;;;;;11.30;7.00;;;;;;;7.86;96.83;101119.95;107729;1252;71767;-77
2023/02/03 02:55:53;;;;;;;10.50;7.10;;;;;;;7.89;96.32;101118.33;107774;1256;71050;-78
2023/02/03 02:58:22;;;;;;;12.10;7.50;;;;;;;7.90;95.75;101109.55;107613;1253;71278;-78
2023/02/03 03:00:49;;;;;;;9.30;6.60;;;;;;;7.92;95.46;101100.55;107988;1253;59675;-79
2023/02/03 03:03:21;;;;;;;8.60;6.30;;;;;;;7.95;95.11;101086.99;107649;1257;59955;-80
2023/02/03 03:05:54;;;;;;;10.70;6.70;;;;;;;7.96;95.05;101085.51;108194;1254;73857;-77
2023/02/03 03:08:42;;;;;;;10.70;6.80;;;;;;;7.97;94.94;101096.75;107821;1256;70988;-79
2023/02/03 03:11:09;;;;;;;9.20;6.10;;;;;;;7.96;94.36;101098.89;107948;1252;73042;-78
2023/02/03 03:13:43;;;;;;;10.30;6.00;;;;;;;7.99;94.20;101105.19;107592;1254;60542;-77
2023/02/03 03:16:12;;;;;;;11.40;7.10;;;;;;;8.00;93.75;101094.28;107280;1252;60500;-78
2023/02/03 03:18:45;;;;;;;9.00;7.00;;;;;;;8.00;93.55;101107.39;107885;1259;73571;-79
2023/02/03 03:21:18;;;;;;;10.40;6.40;;;;;;;8.01;93.41;101116.27;107697;1256;70929;-76
2023/02/03 03:23:49;;;;;;;10.90;7.00;;;;;;;8.01;93.60;101119.78;107870;1254;71218;-76
2023/02/03 03:26:31;;;;;;;9.40;6.60;;;;;;;8.00;93.94;101108.92;107557;1256;61005;-77
2023/02/03 03:29:17;;;;;;;10.20;6.60;;;;;;;7.99;93.94;101098.27;108167;1253;59228;-77
2023/02/03 03:31:44;;;;;;;11.60;6.90;;;;;;;7.98;93.71;101094.32;107498;1254;72315;-78
2023/02/03 03:34:12;;;;;;;9.60;6.50;;;;;;;7.97;93.55;101106.23;107837;1254;70971;-78
2023/02/03 03:37:07;;;;;;;10.30;7.20;;;;;;;7.97;93.66;101101.28;107948;1256;71237;-77
2023/02/03 03:39:48;;;;;;;9.90;6.10;;;;;;;7.96;93.45;101087.85;107778;1253;61268;-79
2023/02/03 03:42:37;;;;;;;9.60;6.10;;;;;;;7.97;93.17;101080.51;108162;1252;60546;-79
2023/02/03 03:45:31;;;;;;;10.80;6.20;;;;;;;7.98;92.95;101083.98;107721;1257;72648;-77
2023/02/03 03:48:20;;;;;;;9.90;6.70;;;;;;;7.99;93.09;101091.95;107838;1256;70338;-79
2023/02/03 03:50:52;;;;;;;12.00;6.50;;;;;;;7.96;93.33;101066.83;107824;1256;72425;-78
2023/02/03 03:53:22;;;;;;;9.70;5.90;;;;;;;7.94;92.89;101063.87;107843;1254;60482;-79
2023/02/03 03:55:52;;;;;;;10.70;6.20;;;;;;;7.96;92.72;101048.34;107572;1254;61975;-78
2023/02/03 03:58:30;;;;;;;12.00;6.00;;;;;;;7.96;92.60;101059.79;108028;1254;72336;-78
2023/02/03 04:01:00;;;;;;;12.90;6.20;;;;;;;7.96;92.48;101055.23;107921;1254;70032;-78
2023/02/03 04:03:36;;;;;;;9.80;5.60;;;;;;;7.98;92.73;101050.86;107839;1253;72482;-78
2023/02/03 04:06:06;;;;;;;9.20;5.20;;;;;;;7.95;92.10;101051.33;107857;1256;59947;-79
2023/02/03 04:08:33;;;;;;;8.60;5.30;;;;;;;7.95;91.96;101057.14;107705;1257;61255;-77
2023/02/03 04:11:00;;;;;;;10.80;5.50;;;;;;;7.98;91.77;101051.42;107919;1254;73873;-78
2023/02/03 04:13:28;;;;;;;10.10;5.50;;;;;;;7.97;91.45;101035.59;107658;1256;69808;-78
2023/02/03 04:15:54;;;;;;;9.80;5.80;;;;;;;7.99;91.25;101038.98;107954;1252;71437;-79
2023/02/03 04:18:21;;;;;;;8.10;4.90;;;;;;;8.00;90.92;101051.38;108086;1256;60909;-78
2023/02/03 04:20:48;;;;;;;8.80;5.30;;;;;;;8.02;91.00;101030.33;107451;1257;60434;-77
2023/02/03 04:23:15;;;;;;;9.80;5.60;;;;;;;8.04;91.02;101046.33;107876;1252;74659;-78
2023/02/03 04:25:42;;;;;;;10.80;5.40;;;;;;;8.05;90.36;101053.17;107366;1259;70933;-77
2023/02/03 04:28:09;;;;;;;8.80;5.50;;;;;;;8.06;90.69;101039.67;107692;1254;71450;-79
2023/02/03 04:30:36;;;;;;;10.70;5.00;;;;;;;8.06;90.48;101056.32;108033;1251;60933;-78
2023/02/03 04:33:03;;;;;;;9.30;5.00;;;;;;;8.09;90.37;101041.31;107892;1254;60422;-76
2023/02/03 04:35:30;;;;;;;7.10;5.30;;;;;;;8.11;90.31;101040.77;107942;1257;73624;-77
2023/02/03 04:37:57;;;;;;;8.00;4.80;;;;;;;8.12;90.46;101044.49;107246;1254;70073;-76
2023/02/03 04:40:24;;;;;;;9.60;5.10;;;;;;;8.11;90.50;101059.60;107861;1256;72795;-76
2023/02/03 04:42:52;;;;;;;9.10;6.00;;;;;;;8.11;90.70;101040.92;107605;1254;61115;-76
2023/02/03 04:45:19;;;;;;;9.90;4.90;;;;;;;8.11;90.33;101045.30;107667;1255;60418;-79
2023/02/03 04:47:52;;;;;;;9.80;5.50;;;;;;;8.10;90.67;101053.36;107960;1255;72371;-77
2023/02/03 04:50:20;;;;;;;9.10;5.00;;;;;;;8.12;90.78;101040.13;108111;1254;70511;-77
2023/02/03 04:52:47;;;;;;;8.60;5.40;;;;;;;8.12;90.76;101039.94;108148;1257;70589;-78
2023/02/03 04:55:14;;;;;;;9.50;5.10;;;;;;;8.10;90.65;101027.40;107442;1254;61021;-78
2023/02/03 04:57:41;;;;;;;11.00;5.70;;;;;;;8.11;90.91;101031.96;107671;1251;60255;-77
2023/02/03 05:00:09;;;;;;;12.20;5.90;;;;;;;8.12;90.75;101026.06;107685;1253;72458;-77
2023/02/03 05:02:36;;;;;;;10.90;5.70;;;;;;;8.10;90.91;101027.27;107939;1256;69653;-78
2023/02/03 05:05:03;;;;;;;10.80;5.90;;;;;;;8.10;90.72;101018.13;108001;1254;71759;-77
2023/02/03 05:07:30;;;;;;;9.50;5.50;;;;;;;8.09;90.86;101017.11;107726;1252;60777;-78
2023/02/03 05:09:57;;;;;;;11.40;5.50;;;;;;;8.09;90.53;101014.37;107855;1252;60172;-78
2023/02/03 05:12:24;;;;;;;7.70;5.30;;;;;;;8.09;90.19;101025.77;107944;1253;73898;-78
2023/02/03 05:14:51;;;;;;;12.10;5.50;;;;;;;8.11;90.45;101009.17;107934;1254;71230;-77
2023/02/03 05:17:18;;;;;;;9.10;5.10;;;;;;;8.09;90.47;101009.45;107605;1254;72420;-76
2023/02/03 05:19:45;;;;;;;9.10;4.90;;;;;;;8.09;90.25;101004.10;107856;1254;61212;-77
2023/02/03 05:22:12;;;;;;;11.10;5.50;;;;;;;8.11;90.02;100991.05;107592;1254;60450;-77
2023/02/03 05:24:38;;;;;;;10.60;5.00;;;;;;;8.12;89.74;100992.73;107787;1254;75099;-77
2023/02/03 05:27:05;;;;;;;11.00;5.20;;;;;;;8.14;89.79;101003.31;107994;1254;71616;-77
2023/02/03 05:29:32;;;;;;;12.00;5.50;;;;;;;8.14;89.44;100979.27;107861;1254;71593;-76
2023/02/03 05:31:59;;;;;;;11.40;5.40;;;;;;;8.15;89.58;100967.57;108051;1252;62815;-78
2023/02/03 05:34:26;;;;;;;7.60;4.90;;;;;;;8.15;89.56;100957.20;107945;1257;60440;-77
2023/02/03 05:36:53;;;;;;;10.00;5.20;;;;;;;8.15;89.53;100952.04;107733;1252;72325;-75
2023/02/03 05:39:20;;;;;;;8.90;4.60;;;;;;;8.14;89.85;100965.94;107888;1254;70032;-74
2023/02/03 05:41:53;;;;;;;8.60;5.10;;;;;;;8.14;89.80;100953.11;107856;1251;73923;-78
2023/02/03 05:44:26;;;;;;;9.10;4.60;;;;;;;8.11;89.94;100964.85;107848;1254;59932;-76
2023/02/03 05:46:55;;;;;;;7.00;4.00;;;;;;;8.11;90.07;100939.92;107911;1254;60815;-74
2023/02/03 05:49:22;;;;;;;8.50;4.60;;;;;;;8.10;90.14;100958.91;108067;1253;72712;-74
2023/02/03 05:51:52;;;;;;;8.90;4.90;;;;;;;8.09;90.07;100959.52;108914;1253;71225;-74
2023/02/03 05:54:19;;;;;;;8.10;4.80;;;;;;;8.09;90.59;100962.36;107843;1254;221895;-74
2023/02/03 05:56:46;;;;;;;10.50;5.10;;;;;;;8.07;91.16;100956.71;108151;1254;60562;-75
2023/02/03 05:59:13;;;;;;;7.60;4.70;;;;;;;8.05;91.15;100959.62;107344;1252;60070;-75
2023/02/03 06:01:40;;;;;;;9.40;4.80;;;;;;;8.03;91.64;100960.29;107530;1256;73906;-75
2023/02/03 06:04:07;;;;;;;8.00;4.70;;;;;;;8.00;92.33;100953.24;107656;1254;70299;-75
2023/02/03 06:06:34;;;;;;;9.40;4.40;;;;;;;7.96;92.78;100956.08;107961;1254;72637;-76
2023/02/03 06:09:04;;;;;;;8.70;3.90;;;;;;;7.92;93.53;100964.25;107994;1254;60271;-74
2023/02/03 06:11:31;;;;;;;9.90;5.10;;;;;;;7.88;94.09;100954.05;107674;1253;59430;-74
2023/02/03 06:13:58;;;;;;;8.20;4.30;;;;;;;7.84;94.70;100970.67;107984;1255;73861;-75
2023/02/03 06:16:26;;;;;;;12.40;5.30;;;;;;;7.80;95.21;100961.73;107832;1254;68765;-75
2023/02/03 06:18:57;;;;;;;10.20;4.30;;;;;;;7.78;95.31;100968.80;107484;1254;72768;-75
2023/02/03 06:21:24;;;;;;;6.60;3.90;;;;;;;7.77;95.27;100980.14;107858;1254;60427;-76
2023/02/03 06:23:50;;;;;;;8.70;4.60;;;;;;;7.75;95.54;100989.41;107771;1252;60518;-77
2023/02/03 06:26:18;;;;;;;9.30;4.20;;;;;;;7.74;95.74;100973.48;108107;1251;73935;-75
2023/02/03 06:28:44;;;;;;;11.70;5.10;;;;;;;7.75;96.49;100969.40;107686;1254;71205;-76
2023/02/03 06:31:11;;;;;;;11.40;5.30;;;;;;;7.70;97.56;100960.54;108064;1251;70785;-76
2023/02/03 06:33:38;;;;;;;11.90;5.00;;;;;;;7.65;98.43;100960.72;107539;1252;60828;-76
2023/02/03 06:36:05;;;;;;;10.50;5.50;;;;;;;7.58;99.34;100956.48;108896;1253;59161;-74
2023/02/03 06:38:32;;;;;;;10.50;5.40;;;;;;;7.49;99.96;100961.14;109253;1252;74624;-74
2023/02/03 06:40:59;;;;;;;8.10;4.60;;;;;;;7.43;100.00;100959.83;108981;1258;71787;-75
2023/02/03 06:43:26;;;;;;;8.50;4.90;;;;;;;7.35;100.00;100961.81;108984;1253;70817;-75
2023/02/03 06:45:53;;;;;;;7.50;4.50;;;;;;;7.33;100.00;100954.24;108289;1254;59692;-74
2023/02/03 06:48:20;;;;;;;7.10;4.10;;;;;;;7.32;100.00;100957.38;107742;1254;61653;-75
2023/02/03 06:50:47;;;;;;;9.50;4.90;;;;;;;7.26;100.00;100973.45;108039;1254;73840;-74
2023/02/03 06:53:14;;;;;;;7.30;4.70;;;;;;;7.24;100.00;100965.48;107674;1256;70091;-75
2023/02/03 06:55:41;;;;;;;9.40;5.60;;;;;;;7.25;100.00;100950.45;107984;1253;72353;-74
2023/02/03 06:58:08;;;;;;;10.80;6.10;;;;;;;7.22;100.00;100948.63;107746;1254;60463;-75
2023/02/03 07:00:35;;;;;;;8.70;4.50;;;;;;;7.18;100.00;100933.34;107858;1252;59010;-74
2023/02/03 07:03:03;;;;;;;8.50;4.90;;;;;;;7.16;100.00;100929.89;107961;1253;72938;-75
2023/02/03 07:05:30;;;;;;;8.70;5.20;;;;;;;7.13;100.00;100939.65;108017;1254;69845;-75
2023/02/03 07:07:57;;;;;;;10.30;5.70;;;;;;;7.11;100.00;100920.80;107669;1254;71755;-77
2023/02/03 07:10:24;;;;;;;10.20;5.70;;;;;;;7.13;100.00;100916.11;108678;1254;62436;-76
2023/02/03 07:12:51;;;;;;;7.40;4.70;;;;;;;7.17;100.00;100920.83;107228;1254;60325;-76
2023/02/03 07:15:18;;;;;;;7.50;4.60;;;;;;;7.16;100.00;100925.87;108349;1253;72103;-75
2023/02/03 07:17:53;;;;;;;8.70;5.10;;;;;;;7.17;100.00;100916.05;107778;1254;69710;-77
2023/02/03 07:20:21;;;;;;;8.40;4.50;;;;;;;7.18;100.00;100940.23;107840;1254;73644;-76
2023/02/03 07:22:52;;;;;;;10.00;5.20;;;;;;;7.19;100.00;100937.11;107501;1252;61600;-76
2023/02/03 07:25:19;;;;;;;6.60;3.90;;;;;;;7.22;100.00;100935.14;107523;1253;60347;-75
2023/02/03 07:27:46;;;;;;;8.80;4.90;;;;;;;7.23;100.00;100915.63;107716;1253;72420;-75
2023/02/03 07:30:13;;;;;;;6.50;4.30;;;;;;;7.27;100.00;100918.77;108517;1254;68909;-75
2023/02/03 07:32:40;;;;;;;7.70;4.50;;;;;;;7.20;100.00;100935.09;109119;1254;72061;-73
2023/02/03 07:35:07;;;;;;;10.50;4.90;;;;;;;7.19;100.00;100919.64;109127;1254;59328;-74
2023/02/03 07:37:34;;;;;;;7.00;4.60;;;;;;;7.17;100.00;100919.45;108390;1253;59014;-76
2023/02/03 07:40:01;;;;;;;6.00;4.00;;;;;;;7.17;100.00;100919.91;106763;1254;72360;-74
2023/02/03 07:42:28;;;;;;;7.30;3.80;;;;;;;7.17;100.00;100925.08;106972;1254;69889;-74
2023/02/03 07:44:55;;;;;;;8.10;4.10;;;;;;;7.16;100.00;100905.79;106622;1257;71152;-78
2023/02/03 07:47:22;;;;;;;5.60;3.30;;;;;;;7.17;100.00;100897.61;107396;1254;60440;-79
2023/02/03 07:49:49;;;;;;;5.70;3.80;;;;;;;7.17;100.00;100892.66;107041;1253;59387;-77
2023/02/03 07:52:15;;;;;;;7.20;3.90;;;;;;;7.18;100.00;100888.36;106898;1253;73526;-79
2023/02/03 07:54:42;;;;;;;5.00;3.40;;;;;;;7.19;100.00;100884.88;107037;1254;70039;-77
2023/02/03 07:57:09;;;;;;;6.20;3.30;;;;;;;7.21;100.00;100895.15;106822;1253;60444;-78
2023/02/03 07:59:36;;;;;;;5.70;3.70;;;;;;;7.20;100.00;100919.09;106827;1254;60542;-77
2023/02/03 08:02:02;;;;;;;4.50;3.40;;;;;;;7.22;100.00;100899.20;107013;1253;60635;-73
2023/02/03 08:04:29;;;;;;;8.30;4.40;;;;;;;7.23;100.00;100893.85;107467;1256;73550;-74
2023/02/03 08:06:56;;;;;;;5.20;3.50;;;;;;;7.27;100.00;100899.31;107099;1254;69829;-75
2023/02/03 08:09:23;;;;;;;6.30;4.20;;;;;;;7.30;100.00;100903.00;106994;1254;72703;-74
2023/02/03 08:11:50;;;;;;;5.40;4.00;;;;;;;7.34;100.00;100901.23;107225;1254;62159;-74
2023/02/03 08:14:16;;;;;;;5.10;3.60;;;;;;;7.37;100.00;100912.21;106824;1256;60859;-75
2023/02/03 08:16:45;;;;;;;6.20;3.70;;;;;;;7.40;100.00;100887.96;106984;1254;74914;-77
2023/02/03 08:19:12;;;;;;;6.20;3.70;;;;;;;7.44;100.00;100891.80;106916;1253;70914;-75
2023/02/03 08:21:38;;;;;;;5.30;4.00;;;;;;;7.49;100.00;100900.73;106913;1254;72771;-74
2023/02/03 08:24:05;;;;;;;6.50;4.00;;;;;;;7.54;100.00;100897.73;107084;1252;60612;-77
2023/02/03 08:26:32;;;;;;;5.70;4.20;;;;;;;7.56;100.00;100902.48;106812;1254;60495;-77
2023/02/03 08:28:59;;;;;;;4.90;3.00;;;;;;;7.60;100.00;100899.74;106833;1252;72672;-76
2023/02/03 08:31:26;;;;;;;6.20;3.90;;;;;;;7.63;100.00;100884.50;107122;1253;69721;-75
2023/02/03 08:33:53;;;;;;;9.20;4.80;;;;;;;7.66;100.00;100887.07;106649;1254;73891;-72
2023/02/03 08:36:20;;;;;;;6.60;4.10;;;;;;;7.67;100.00;100894.98;106561;1254;60736;-74
2023/02/03 08:38:46;;;;;;;7.20;4.20;;;;;;;7.70;100.00;100914.80;107195;1253;60325;-75
2023/02/03 08:41:16;;;;;;;5.80;3.70;;;;;;;7.75;100.00;100917.64;107284;1257;74389;-75
2023/02/03 08:43:44;;;;;;;6.40;3.90;;;;;;;7.78;100.00;100920.68;106609;1254;69998;-76
2023/02/03 08:46:12;;;;;;;8.20;4.30;;;;;;;7.80;100.00;100918.58;106544;1254;72559;-77
2023/02/03 08:48:39;;;;;;;5.90;3.40;;;;;;;7.82;100.00;100917.57;106918;1254;59954;-76
2023/02/03 08:51:15;;;;;;;6.30;3.40;;;;;;;7.82;100.00;100912.75;106844;1254;61102;-79
2023/02/03 08:53:42;;;;;;;7.70;4.00;;;;;;;7.85;100.00;100903.54;107182;1254;72705;-76
2023/02/03 08:56:11;;;;;;;7.70;3.80;;;;;;;7.86;100.00;100883.81;106694;1254;69643;-77
2023/02/03 08:58:38;;;;;;;9.40;4.60;;;;;;;7.87;100.00;100891.34;107391;1254;72683;-77
2023/02/03 09:01:14;;;;;;;6.70;3.80;;;;;;;7.83;100.00;100890.48;107130;1253;60385;-78
2023/02/03 09:03:42;;;;;;;7.00;4.00;;;;;;;7.74;100.00;100906.23;106849;1254;60350;-77
2023/02/03 09:06:11;;;;;;;9.10;4.50;;;;;;;7.67;100.00;100903.64;107226;1259;72587;-78
2023/02/03 09:08:39;;;;;;;10.90;5.00;;;;;;;7.62;100.00;100912.14;106532;1253;69730;-79
2023/02/03 09:11:14;;;;;;;10.20;4.20;;;;;;;7.55;100.00;100925.91;107569;1256;71189;-78
2023/02/03 09:13:44;;;;;;;11.40;5.70;;;;;;;7.54;100.00;100920.77;106748;1254;60937;-76
2023/02/03 09:16:12;;;;;;;7.70;5.20;;;;;;;7.53;100.00;100913.44;107308;1252;60469;-78
2023/02/03 09:18:39;;;;;;;10.40;4.80;;;;;;;7.56;100.00;100918.27;106362;1254;72693;-74
2023/02/03 09:21:10;;;;;;;10.90;3.80;;;;;;;7.61;100.00;100911.41;106958;1253;69863;-76
2023/02/03 09:23:46;;;;;;;10.10;4.10;;;;;;;7.67;100.00;100913.90;106777;1252;71878;-74
2023/02/03 09:26:14;;;;;;;9.30;4.60;;;;;;;7.72;100.00;100898.92;106736;1254;60559;-74
2023/02/03 09:28:41;;;;;;;6.90;3.30;;;;;;;7.78;100.00;100897.16;106721;1254;60511;-74
2023/02/03 09:31:14;;;;;;;8.50;4.00;;;;;;;7.84;100.00;100900.27;106729;1254;73561;-76
2023/02/03 09:33:41;;;;;;;7.20;3.20;;;;;;;7.90;100.00;100906.98;107400;1253;69779;-74
2023/02/03 09:36:09;;;;;;;8.70;3.70;;;;;;;7.96;100.00;100898.16;106840;1253;72336;-76
2023/02/03 09:38:36;;;;;;;9.30;3.50;;;;;;;8.00;100.00;100904.46;106395;1253;61656;-76
2023/02/03 09:41:20;;;;;;;8.30;3.90;;;;;;;8.00;100.00;100880.70;107017;1253;60535;-75
2023/02/03 09:44:14;;;;;;;9.20;4.00;;;;;;;7.99;100.00;100881.70;106975;1252;73586;-74
2023/02/03 09:46:45;;;;;;;10.00;3.80;;;;;;;7.96;100.00;100884.77;106485;1254;71179;-74
2023/02/03 09:49:23;;;;;;;8.50;3.50;;;;;;;7.92;100.00;100874.23;106814;1254;71464;-77
2023/02/03 09:52:04;;;;;;;9.10;3.60;;;;;;;7.87;100.00;100891.86;107028;1252;60914;-78
2023/02/03 09:55:23;;;;;;;10.50;3.40;;;;;;;7.82;100.00;100896.58;106827;1253;60868;-77
2023/02/03 09:58:00;;;;;;;7.70;3.10;;;;;;;7.79;100.00;100899.29;106044;1260;74962;-78
2023/02/03 10:00:34;;;;;;;9.60;3.50;;;;;;;7.80;100.00;100894.29;106864;1254;70268;-78
2023/02/03 10:03:32;;;;;;;8.90;3.30;;;;;;;7.82;100.00;100898.02;106780;1253;71288;-78
2023/02/03 10:06:27;;;;;;;7.80;3.10;;;;;;;7.80;100.00;100879.30;106930;1252;61284;-78
2023/02/03 10:09:19;;;;;;;9.90;3.50;;;;;;;7.80;100.00;100883.35;107249;1253;60131;-79
2023/02/03 10:12:21;;;;;;;9.10;3.00;;;;;;;7.84;100.00;100885.08;106913;1253;73633;-75
2023/02/03 10:15:03;;;;;;;8.30;3.00;;;;;;;7.86;100.00;100887.20;106836;1256;71344;-75
2023/02/03 10:17:32;;;;;;;10.70;3.50;;;;;;;7.88;100.00;100887.55;106654;1253;72369;-77
2023/02/03 10:20:07;;;;;;;9.10;3.00;;;;;;;7.90;100.00;100887.30;107126;1256;60923;-75
2023/02/03 10:22:53;;;;;;;10.20;2.80;;;;;;;7.88;100.00;100902.87;106707;1254;60453;-75
2023/02/03 10:25:35;;;;;;;8.20;2.70;;;;;;;7.86;100.00;100893.31;106669;1254;74075;-75
2023/02/03 10:28:08;;;;;;;10.40;3.00;;;;;;;7.83;100.00;100925.20;106843;1253;71462;-76
2023/02/03 10:30:46;;;;;;;8.20;2.00;;;;;;;7.80;100.00;100922.68;107733;1252;71418;-77
2023/02/03 10:33:16;;;;;;;10.80;2.20;;;;;;;7.78;100.00;100942.77;109221;1253;60988;-75
2023/02/03 10:35:53;;;;;;;10.00;2.40;;;;;;;7.77;100.00;100941.76;108884;1254;60692;-76
2023/02/03 10:38:28;;;;;;;10.90;2.40;;;;;;;7.73;100.00;100956.18;107275;1253;73955;-77
2023/02/03 10:40:55;;;;;;;9.50;2.70;;;;;;;7.75;100.00;100944.39;108521;1253;69707;-77
2023/02/03 10:46:07;;;;;;;7.70;1.70;;;;;;;7.81;100.00;100938.59;106557;1260;61000;-75
2023/02/03 10:48:35;;;;;;;9.30;2.00;;;;;;;7.80;100.00;100947.14;106781;1253;61578;-76
2023/02/03 10:51:02;;;;;;;6.60;2.00;;;;;;;7.79;100.00;100950.16;107164;1253;73928;-78
2023/02/03 10:53:34;;;;;;;10.30;2.20;;;;;;;7.79;100.00;100971.72;106742;1254;69050;-78
2023/02/03 10:56:12;;;;;;;9.10;2.40;;;;;;;7.76;100.00;100946.77;106733;1254;71407;-79
2023/02/03 10:58:49;;;;;;;5.70;1.90;;;;;;;7.72;100.00;100966.30;106834;1254;61347;-75
2023/02/03 11:01:20;;;;;;;8.10;2.20;;;;;;;7.75;100.00;100980.63;106829;1254;60338;-78
2023/02/03 11:03:58;;;;;;;10.00;2.30;;;;;;;7.82;100.00;100985.32;106884;1258;73920;-79
2023/02/03 11:06:25;;;;;;;10.50;2.80;;;;;;;7.88;100.00;100975.56;106771;1254;70107;-76
2023/02/03 11:08:55;;;;;;;11.20;2.70;;;;;;;7.94;100.00;100980.55;106683;1253;71408;-76
2023/02/03 11:11:32;;;;;;;11.10;2.90;;;;;;;8.01;100.00;100974.11;106878;1254;60547;-76
2023/02/03 11:14:02;;;;;;;7.50;2.10;;;;;;;8.08;100.00;100976.05;106938;1254;60514;-75
2023/02/03 11:16:33;;;;;;;8.00;2.10;;;;;;;8.11;100.00;100977.48;106753;1252;74483;-76
2023/02/03 11:19:02;;;;;;;9.70;2.10;;;;;;;8.13;100.00;100988.39;106713;1254;71153;-76
2023/02/03 11:21:38;;;;;;;10.60;2.30;;;;;;;8.13;100.00;100995.27;107070;1253;72379;-77
2023/02/03 11:24:26;;;;;;;12.10;3.00;;;;;;;8.20;100.00;100981.91;107155;1253;59923;-76
2023/02/03 11:27:05;;;;;;;12.40;2.90;;;;;;;8.23;99.79;100997.33;106699;1253;60430;-78
2023/02/03 11:29:43;;;;;;;12.00;2.90;;;;;;;8.28;99.74;100986.77;107098;1252;72927;-77
2023/02/03 11:32:22;;;;;;;11.20;2.60;;;;;;;8.31;99.42;100998.06;107184;1253;70317;-78
2023/02/03 11:34:59;;;;;;;9.00;2.50;;;;;;;8.37;98.85;100992.75;107299;1254;72015;-77